sensor_id;sensor_type;location;lat;lon;timestamp;P1;durP1;ratioP1;P2;durP2;ratioP2
24897;SDS011;12957;49.434;8.684;2023-06-22T00:00:58;4.97;;;4.03;;
24897;SDS011;12957;49.434;8.684;2023-06-22T00:03:24;5.38;;;3.83;;
24897;SDS011;12957;49.434;8.684;2023-06-22T00:05:50;6.05;;;4.10;;
24897;SDS011;12957;49.434;8.684;2023-06-22T00:08:16;6.25;;;4.57;;
24897;SDS011;12957;49.434;8.684;2023-06-22T00:10:42;6.60;;;3.85;;
24897;SDS011;12957;49.434;8.684;2023-06-22T00:13:08;5.05;;;3.58;;
24897;SDS011;12957;49.434;8.684;2023-06-22T00:15:34;4.30;;;3.72;;
24897;SDS011;12957;49.434;8.684;2023-06-22T00:18:00;4.95;;;3.90;;
24897;SDS011;12957;49.434;8.684;2023-06-22T00:20:27;9.80;;;4.00;;
24897;SDS011;12957;49.434;8.684;2023-06-22T00:22:56;4.25;;;3.60;;
24897;SDS011;12957;49.434;8.684;2023-06-22T00:25:22;5.38;;;3.72;;
24897;SDS011;12957;49.434;8.684;2023-06-22T00:27:48;4.75;;;3.95;;
24897;SDS011;12957;49.434;8.684;2023-06-22T00:30:15;6.70;;;3.65;;
24897;SDS011;12957;49.434;8.684;2023-06-22T00:32:41;4.55;;;4.15;;
24897;SDS011;12957;49.434;8.684;2023-06-22T00:35:06;3.85;;;3.60;;
24897;SDS011;12957;49.434;8.684;2023-06-22T00:37:32;5.95;;;4.43;;
24897;SDS011;12957;49.434;8.684;2023-06-22T00:39:58;5.13;;;4.03;;
24897;SDS011;12957;49.434;8.684;2023-06-22T00:42:24;5.50;;;4.03;;
24897;SDS011;12957;49.434;8.684;2023-06-22T00:44:49;6.47;;;4.28;;
24897;SDS011;12957;49.434;8.684;2023-06-22T00:47:17;4.18;;;3.83;;
24897;SDS011;12957;49.434;8.684;2023-06-22T00:49:43;4.30;;;3.88;;
24897;SDS011;12957;49.434;8.684;2023-06-22T00:52:09;6.90;;;4.13;;
24897;SDS011;12957;49.434;8.684;2023-06-22T00:54:40;5.72;;;3.92;;
24897;SDS011;12957;49.434;8.684;2023-06-22T00:57:13;4.88;;;4.38;;
24897;SDS011;12957;49.434;8.684;2023-06-22T00:59:42;5.68;;;4.60;;
24897;SDS011;12957;49.434;8.684;2023-06-22T01:02:08;9.07;;;4.55;;
24897;SDS011;12957;49.434;8.684;2023-06-22T01:04:35;8.60;;;5.55;;
24897;SDS011;12957;49.434;8.684;2023-06-22T01:12:26;11.63;;;7.22;;
24897;SDS011;12957;49.434;8.684;2023-06-22T01:15:02;8.73;;;6.47;;
24897;SDS011;12957;49.434;8.684;2023-06-22T01:17:32;8.90;;;6.22;;
24897;SDS011;12957;49.434;8.684;2023-06-22T01:19:57;10.10;;;6.22;;
24897;SDS011;12957;49.434;8.684;2023-06-22T01:22:24;9.65;;;6.30;;
24897;SDS011;12957;49.434;8.684;2023-06-22T01:25:00;6.55;;;5.75;;
24897;SDS011;12957;49.434;8.684;2023-06-22T01:30:06;9.05;;;6.97;;
24897;SDS011;12957;49.434;8.684;2023-06-22T01:32:33;16.02;;;9.48;;
24897;SDS011;12957;49.434;8.684;2023-06-22T01:35:00;12.35;;;8.77;;
24897;SDS011;12957;49.434;8.684;2023-06-22T01:37:27;10.30;;;9.30;;
24897;SDS011;12957;49.434;8.684;2023-06-22T01:39:52;15.52;;;10.27;;
24897;SDS011;12957;49.434;8.684;2023-06-22T01:42:19;20.75;;;10.98;;
24897;SDS011;12957;49.434;8.684;2023-06-22T01:44:44;12.40;;;9.65;;
24897;SDS011;12957;49.434;8.684;2023-06-22T01:47:10;10.18;;;8.45;;
24897;SDS011;12957;49.434;8.684;2023-06-22T01:49:39;13.10;;;8.90;;
24897;SDS011;12957;49.434;8.684;2023-06-22T01:52:06;12.63;;;9.18;;
24897;SDS011;12957;49.434;8.684;2023-06-22T01:54:32;11.27;;;9.05;;
24897;SDS011;12957;49.434;8.684;2023-06-22T01:56:57;16.38;;;10.38;;
24897;SDS011;12957;49.434;8.684;2023-06-22T01:59:32;12.55;;;8.88;;
24897;SDS011;12957;49.434;8.684;2023-06-22T02:02:03;13.02;;;9.05;;
24897;SDS011;12957;49.434;8.684;2023-06-22T02:04:35;17.33;;;9.80;;
24897;SDS011;12957;49.434;8.684;2023-06-22T02:07:04;10.35;;;9.23;;
24897;SDS011;12957;49.434;8.684;2023-06-22T02:09:32;15.30;;;9.23;;
24897;SDS011;12957;49.434;8.684;2023-06-22T02:11:59;10.68;;;9.57;;
24897;SDS011;12957;49.434;8.684;2023-06-22T02:14:26;12.48;;;9.55;;
24897;SDS011;12957;49.434;8.684;2023-06-22T02:16:52;11.02;;;8.60;;
24897;SDS011;12957;49.434;8.684;2023-06-22T02:19:22;12.40;;;8.50;;
24897;SDS011;12957;49.434;8.684;2023-06-22T02:21:48;12.68;;;8.90;;
24897;SDS011;12957;49.434;8.684;2023-06-22T02:24:13;14.02;;;10.02;;
24897;SDS011;12957;49.434;8.684;2023-06-22T02:26:39;13.07;;;10.10;;
24897;SDS011;12957;49.434;8.684;2023-06-22T02:29:07;11.90;;;9.45;;
24897;SDS011;12957;49.434;8.684;2023-06-22T02:31:33;10.48;;;9.23;;
24897;SDS011;12957;49.434;8.684;2023-06-22T02:33:59;10.55;;;8.60;;
24897;SDS011;12957;49.434;8.684;2023-06-22T02:36:24;11.70;;;9.18;;
24897;SDS011;12957;49.434;8.684;2023-06-22T02:38:52;11.77;;;8.68;;
24897;SDS011;12957;49.434;8.684;2023-06-22T02:41:19;10.43;;;8.45;;
24897;SDS011;12957;49.434;8.684;2023-06-22T02:43:48;13.38;;;8.50;;
24897;SDS011;12957;49.434;8.684;2023-06-22T02:46:13;12.15;;;9.13;;
24897;SDS011;12957;49.434;8.684;2023-06-22T02:48:39;13.18;;;8.93;;
24897;SDS011;12957;49.434;8.684;2023-06-22T02:51:05;20.05;;;9.63;;
24897;SDS011;12957;49.434;8.684;2023-06-22T02:53:31;16.10;;;10.00;;
24897;SDS011;12957;49.434;8.684;2023-06-22T02:55:57;13.45;;;9.15;;
24897;SDS011;12957;49.434;8.684;2023-06-22T02:58:22;15.77;;;9.77;;
24897;SDS011;12957;49.434;8.684;2023-06-22T03:00:49;12.40;;;9.20;;
24897;SDS011;12957;49.434;8.684;2023-06-22T03:03:18;10.90;;;9.30;;
24897;SDS011;12957;49.434;8.684;2023-06-22T03:05:44;16.70;;;9.20;;
24897;SDS011;12957;49.434;8.684;2023-06-22T03:08:09;14.27;;;8.77;;
24897;SDS011;12957;49.434;8.684;2023-06-22T03:10:35;12.95;;;9.05;;
24897;SDS011;12957;49.434;8.684;2023-06-22T03:13:00;13.55;;;8.70;;
24897;SDS011;12957;49.434;8.684;2023-06-22T03:15:26;12.15;;;8.50;;
24897;SDS011;12957;49.434;8.684;2023-06-22T03:17:54;12.32;;;8.90;;
24897;SDS011;12957;49.434;8.684;2023-06-22T03:20:20;10.40;;;8.70;;
24897;SDS011;12957;49.434;8.684;2023-06-22T03:22:45;10.98;;;9.10;;
24897;SDS011;12957;49.434;8.684;2023-06-22T03:25:11;9.63;;;8.63;;
24897;SDS011;12957;49.434;8.684;2023-06-22T03:27:42;9.38;;;8.23;;
24897;SDS011;12957;49.434;8.684;2023-06-22T03:30:09;11.60;;;8.07;;
24897;SDS011;12957;49.434;8.684;2023-06-22T03:32:36;9.85;;;8.43;;
24897;SDS011;12957;49.434;8.684;2023-06-22T03:35:01;9.55;;;7.78;;
24897;SDS011;12957;49.434;8.684;2023-06-22T03:37:28;10.82;;;8.82;;
24897;SDS011;12957;49.434;8.684;2023-06-22T03:39:53;11.05;;;8.95;;
24897;SDS011;12957;49.434;8.684;2023-06-22T03:42:19;10.73;;;9.07;;
24897;SDS011;12957;49.434;8.684;2023-06-22T03:44:45;9.93;;;8.77;;
24897;SDS011;12957;49.434;8.684;2023-06-22T03:47:10;10.15;;;8.77;;
24897;SDS011;12957;49.434;8.684;2023-06-22T03:49:36;8.88;;;7.65;;
24897;SDS011;12957;49.434;8.684;2023-06-22T03:52:02;12.35;;;7.68;;
24897;SDS011;12957;49.434;8.684;2023-06-22T03:54:28;7.95;;;7.15;;
24897;SDS011;12957;49.434;8.684;2023-06-22T03:56:54;8.80;;;7.82;;
24897;SDS011;12957;49.434;8.684;2023-06-22T03:59:20;7.93;;;7.13;;
24897;SDS011;12957;49.434;8.684;2023-06-22T04:01:45;8.95;;;8.05;;
24897;SDS011;12957;49.434;8.684;2023-06-22T04:04:11;8.57;;;7.72;;
24897;SDS011;12957;49.434;8.684;2023-06-22T04:06:37;10.30;;;7.28;;
24897;SDS011;12957;49.434;8.684;2023-06-22T04:09:03;8.63;;;7.28;;
24897;SDS011;12957;49.434;8.684;2023-06-22T04:11:28;8.98;;;6.85;;
24897;SDS011;12957;49.434;8.684;2023-06-22T04:13:54;7.78;;;6.30;;
24897;SDS011;12957;49.434;8.684;2023-06-22T04:16:20;8.27;;;6.88;;
24897;SDS011;12957;49.434;8.684;2023-06-22T04:18:46;6.97;;;6.30;;
24897;SDS011;12957;49.434;8.684;2023-06-22T04:21:11;8.50;;;6.35;;
24897;SDS011;12957;49.434;8.684;2023-06-22T04:23:36;8.65;;;5.10;;
24897;SDS011;12957;49.434;8.684;2023-06-22T04:26:02;9.65;;;5.47;;
24897;SDS011;12957;49.434;8.684;2023-06-22T04:28:27;8.10;;;5.55;;
24897;SDS011;12957;49.434;8.684;2023-06-22T04:30:53;5.68;;;5.18;;
24897;SDS011;12957;49.434;8.684;2023-06-22T04:33:23;7.10;;;5.65;;
24897;SDS011;12957;49.434;8.684;2023-06-22T04:35:48;6.00;;;5.40;;
24897;SDS011;12957;49.434;8.684;2023-06-22T04:38:14;12.48;;;5.57;;
24897;SDS011;12957;49.434;8.684;2023-06-22T04:40:39;8.73;;;5.38;;
24897;SDS011;12957;49.434;8.684;2023-06-22T04:43:05;6.47;;;5.07;;
24897;SDS011;12957;49.434;8.684;2023-06-22T04:45:32;5.90;;;4.70;;
24897;SDS011;12957;49.434;8.684;2023-06-22T04:47:58;4.85;;;4.35;;
24897;SDS011;12957;49.434;8.684;2023-06-22T04:50:23;6.03;;;4.68;;
24897;SDS011;12957;49.434;8.684;2023-06-22T04:52:49;6.80;;;4.80;;
24897;SDS011;12957;49.434;8.684;2023-06-22T04:55:15;5.95;;;4.75;;
24897;SDS011;12957;49.434;8.684;2023-06-22T04:57:45;8.80;;;4.82;;
24897;SDS011;12957;49.434;8.684;2023-06-22T05:00:14;7.38;;;4.93;;
24897;SDS011;12957;49.434;8.684;2023-06-22T05:02:42;9.00;;;4.55;;
24897;SDS011;12957;49.434;8.684;2023-06-22T05:05:08;4.60;;;4.15;;
24897;SDS011;12957;49.434;8.684;2023-06-22T05:07:38;6.00;;;4.60;;
24897;SDS011;12957;49.434;8.684;2023-06-22T05:10:08;7.60;;;4.40;;
24897;SDS011;12957;49.434;8.684;2023-06-22T05:12:37;4.72;;;4.32;;
24897;SDS011;12957;49.434;8.684;2023-06-22T05:15:03;4.82;;;4.32;;
24897;SDS011;12957;49.434;8.684;2023-06-22T05:17:30;5.22;;;4.40;;
24897;SDS011;12957;49.434;8.684;2023-06-22T05:19:55;4.43;;;4.07;;
24897;SDS011;12957;49.434;8.684;2023-06-22T05:22:21;4.60;;;4.20;;
24897;SDS011;12957;49.434;8.684;2023-06-22T05:24:46;4.55;;;4.15;;
24897;SDS011;12957;49.434;8.684;2023-06-22T05:27:12;5.28;;;4.40;;
24897;SDS011;12957;49.434;8.684;2023-06-22T05:29:38;6.63;;;4.10;;
24897;SDS011;12957;49.434;8.684;2023-06-22T05:32:04;6.57;;;4.30;;
24897;SDS011;12957;49.434;8.684;2023-06-22T05:34:30;6.10;;;4.10;;
24897;SDS011;12957;49.434;8.684;2023-06-22T05:36:56;4.32;;;4.00;;
24897;SDS011;12957;49.434;8.684;2023-06-22T05:39:24;4.88;;;4.40;;
24897;SDS011;12957;49.434;8.684;2023-06-22T05:41:49;5.35;;;4.18;;
24897;SDS011;12957;49.434;8.684;2023-06-22T05:44:15;6.78;;;4.32;;
24897;SDS011;12957;49.434;8.684;2023-06-22T05:46:41;9.07;;;4.05;;
24897;SDS011;12957;49.434;8.684;2023-06-22T05:49:09;4.63;;;4.18;;
24897;SDS011;12957;49.434;8.684;2023-06-22T05:51:36;5.63;;;4.43;;
24897;SDS011;12957;49.434;8.684;2023-06-22T05:54:01;4.90;;;4.10;;
24897;SDS011;12957;49.434;8.684;2023-06-22T05:56:27;5.35;;;4.32;;
24897;SDS011;12957;49.434;8.684;2023-06-22T05:58:52;4.90;;;4.40;;
24897;SDS011;12957;49.434;8.684;2023-06-22T06:01:18;4.40;;;3.65;;
24897;SDS011;12957;49.434;8.684;2023-06-22T06:03:44;4.50;;;4.10;;
24897;SDS011;12957;49.434;8.684;2023-06-22T06:06:09;7.28;;;4.60;;
24897;SDS011;12957;49.434;8.684;2023-06-22T06:08:36;5.43;;;4.05;;
24897;SDS011;12957;49.434;8.684;2023-06-22T06:11:02;4.85;;;4.30;;
24897;SDS011;12957;49.434;8.684;2023-06-22T06:13:27;4.88;;;4.38;;
24897;SDS011;12957;49.434;8.684;2023-06-22T06:15:53;7.18;;;4.05;;
24897;SDS011;12957;49.434;8.684;2023-06-22T06:18:22;4.78;;;4.38;;
24897;SDS011;12957;49.434;8.684;2023-06-22T06:20:47;4.45;;;4.00;;
24897;SDS011;12957;49.434;8.684;2023-06-22T06:23:12;5.53;;;4.57;;
24897;SDS011;12957;49.434;8.684;2023-06-22T06:25:38;5.15;;;4.35;;
24897;SDS011;12957;49.434;8.684;2023-06-22T06:28:04;4.47;;;4.07;;
24897;SDS011;12957;49.434;8.684;2023-06-22T06:30:30;6.45;;;4.18;;
24897;SDS011;12957;49.434;8.684;2023-06-22T06:32:55;8.25;;;3.83;;
24897;SDS011;12957;49.434;8.684;2023-06-22T06:35:21;4.45;;;3.95;;
24897;SDS011;12957;49.434;8.684;2023-06-22T06:37:47;8.15;;;4.40;;
24897;SDS011;12957;49.434;8.684;2023-06-22T06:40:14;4.43;;;4.03;;
24897;SDS011;12957;49.434;8.684;2023-06-22T06:42:49;4.97;;;4.40;;
24897;SDS011;12957;49.434;8.684;2023-06-22T06:45:15;4.25;;;3.85;;
24897;SDS011;12957;49.434;8.684;2023-06-22T06:47:42;5.10;;;4.22;;
24897;SDS011;12957;49.434;8.684;2023-06-22T06:50:08;6.40;;;3.70;;
24897;SDS011;12957;49.434;8.684;2023-06-22T06:52:34;4.97;;;4.43;;
24897;SDS011;12957;49.434;8.684;2023-06-22T06:55:00;4.60;;;4.20;;
24897;SDS011;12957;49.434;8.684;2023-06-22T06:57:26;4.65;;;4.25;;
24897;SDS011;12957;49.434;8.684;2023-06-22T06:59:55;5.97;;;4.10;;
24897;SDS011;12957;49.434;8.684;2023-06-22T07:02:21;4.53;;;4.13;;
24897;SDS011;12957;49.434;8.684;2023-06-22T07:04:47;4.57;;;3.95;;
24897;SDS011;12957;49.434;8.684;2023-06-22T07:07:13;6.13;;;4.03;;
24897;SDS011;12957;49.434;8.684;2023-06-22T07:09:38;6.40;;;3.90;;
24897;SDS011;12957;49.434;8.684;2023-06-22T07:12:04;4.30;;;3.90;;
24897;SDS011;12957;49.434;8.684;2023-06-22T07:14:30;7.07;;;4.20;;
24897;SDS011;12957;49.434;8.684;2023-06-22T07:16:56;4.50;;;4.10;;
24897;SDS011;12957;49.434;8.684;2023-06-22T07:19:26;7.03;;;4.38;;
24897;SDS011;12957;49.434;8.684;2023-06-22T07:21:52;6.75;;;4.35;;
24897;SDS011;12957;49.434;8.684;2023-06-22T07:24:21;8.13;;;4.20;;
24897;SDS011;12957;49.434;8.684;2023-06-22T07:26:47;4.57;;;3.53;;
24897;SDS011;12957;49.434;8.684;2023-06-22T07:29:14;5.32;;;3.88;;
24897;SDS011;12957;49.434;8.684;2023-06-22T07:31:43;4.65;;;4.18;;
24897;SDS011;12957;49.434;8.684;2023-06-22T07:34:12;4.15;;;3.85;;
24897;SDS011;12957;49.434;8.684;2023-06-22T07:36:37;4.70;;;3.83;;
24897;SDS011;12957;49.434;8.684;2023-06-22T07:39:03;7.00;;;4.15;;
24897;SDS011;12957;49.434;8.684;2023-06-22T07:41:30;5.20;;;4.40;;
24897;SDS011;12957;49.434;8.684;2023-06-22T07:43:56;7.18;;;4.20;;
24897;SDS011;12957;49.434;8.684;2023-06-22T07:46:22;4.28;;;3.88;;
24897;SDS011;12957;49.434;8.684;2023-06-22T07:48:56;5.22;;;4.18;;
24897;SDS011;12957;49.434;8.684;2023-06-22T07:51:22;5.90;;;4.32;;
24897;SDS011;12957;49.434;8.684;2023-06-22T07:53:48;5.57;;;4.03;;
24897;SDS011;12957;49.434;8.684;2023-06-22T07:56:14;8.30;;;3.90;;
24897;SDS011;12957;49.434;8.684;2023-06-22T07:58:44;4.28;;;3.90;;
24897;SDS011;12957;49.434;8.684;2023-06-22T08:01:09;5.05;;;4.55;;
24897;SDS011;12957;49.434;8.684;2023-06-22T08:03:35;5.50;;;4.40;;
24897;SDS011;12957;49.434;8.684;2023-06-22T08:06:01;3.95;;;3.55;;
24897;SDS011;12957;49.434;8.684;2023-06-22T08:08:27;9.02;;;4.38;;
24897;SDS011;12957;49.434;8.684;2023-06-22T08:10:52;10.30;;;4.22;;
24897;SDS011;12957;49.434;8.684;2023-06-22T08:13:18;4.53;;;3.97;;
24897;SDS011;12957;49.434;8.684;2023-06-22T08:15:44;5.63;;;3.72;;
24897;SDS011;12957;49.434;8.684;2023-06-22T08:18:10;5.38;;;3.97;;
24897;SDS011;12957;49.434;8.684;2023-06-22T08:20:35;6.15;;;3.70;;
24897;SDS011;12957;49.434;8.684;2023-06-22T08:23:01;4.22;;;3.85;;
24897;SDS011;12957;49.434;8.684;2023-06-22T08:25:31;5.53;;;3.75;;
24897;SDS011;12957;49.434;8.684;2023-06-22T08:27:57;5.20;;;3.70;;
24897;SDS011;12957;49.434;8.684;2023-06-22T08:30:23;3.90;;;3.55;;
24897;SDS011;12957;49.434;8.684;2023-06-22T08:32:48;8.90;;;4.30;;
24897;SDS011;12957;49.434;8.684;2023-06-22T08:35:14;4.47;;;3.88;;
24897;SDS011;12957;49.434;8.684;2023-06-22T08:37:39;4.18;;;3.80;;
24897;SDS011;12957;49.434;8.684;2023-06-22T08:40:06;5.80;;;3.95;;
24897;SDS011;12957;49.434;8.684;2023-06-22T08:42:34;6.72;;;4.00;;
24897;SDS011;12957;49.434;8.684;2023-06-22T08:45:03;4.93;;;3.90;;
24897;SDS011;12957;49.434;8.684;2023-06-22T08:47:29;6.32;;;3.88;;
24897;SDS011;12957;49.434;8.684;2023-06-22T08:49:54;4.35;;;4.05;;
24897;SDS011;12957;49.434;8.684;2023-06-22T08:52:20;4.45;;;3.90;;
24897;SDS011;12957;49.434;8.684;2023-06-22T08:54:46;6.13;;;3.95;;
24897;SDS011;12957;49.434;8.684;2023-06-22T08:57:12;4.25;;;3.75;;
24897;SDS011;12957;49.434;8.684;2023-06-22T08:59:37;6.20;;;4.00;;
24897;SDS011;12957;49.434;8.684;2023-06-22T09:02:03;7.72;;;4.55;;
24897;SDS011;12957;49.434;8.684;2023-06-22T09:04:28;8.70;;;4.35;;
24897;SDS011;12957;49.434;8.684;2023-06-22T09:06:54;7.35;;;4.22;;
24897;SDS011;12957;49.434;8.684;2023-06-22T09:09:20;10.00;;;4.55;;
24897;SDS011;12957;49.434;8.684;2023-06-22T09:11:46;8.02;;;4.20;;
24897;SDS011;12957;49.434;8.684;2023-06-22T09:14:12;8.40;;;4.40;;
24897;SDS011;12957;49.434;8.684;2023-06-22T09:16:37;8.38;;;4.55;;
24897;SDS011;12957;49.434;8.684;2023-06-22T09:19:03;6.38;;;4.35;;
24897;SDS011;12957;49.434;8.684;2023-06-22T09:21:29;7.18;;;4.30;;
24897;SDS011;12957;49.434;8.684;2023-06-22T09:23:54;7.50;;;4.13;;
24897;SDS011;12957;49.434;8.684;2023-06-22T09:26:20;7.03;;;4.35;;
24897;SDS011;12957;49.434;8.684;2023-06-22T09:28:46;9.45;;;4.35;;
24897;SDS011;12957;49.434;8.684;2023-06-22T09:31:12;9.30;;;4.78;;
24897;SDS011;12957;49.434;8.684;2023-06-22T09:33:37;7.97;;;4.30;;
24897;SDS011;12957;49.434;8.684;2023-06-22T09:36:04;5.75;;;4.15;;
24897;SDS011;12957;49.434;8.684;2023-06-22T09:38:34;8.13;;;4.32;;
24897;SDS011;12957;49.434;8.684;2023-06-22T09:41:02;6.10;;;4.50;;
24897;SDS011;12957;49.434;8.684;2023-06-22T09:43:28;11.00;;;4.88;;
24897;SDS011;12957;49.434;8.684;2023-06-22T09:45:53;9.27;;;4.55;;
24897;SDS011;12957;49.434;8.684;2023-06-22T09:48:19;6.05;;;4.30;;
24897;SDS011;12957;49.434;8.684;2023-06-22T09:50:44;6.68;;;4.72;;
24897;SDS011;12957;49.434;8.684;2023-06-22T09:53:10;16.73;;;4.57;;
24897;SDS011;12957;49.434;8.684;2023-06-22T09:55:35;9.52;;;4.50;;
24897;SDS011;12957;49.434;8.684;2023-06-22T09:58:01;7.88;;;4.68;;
24897;SDS011;12957;49.434;8.684;2023-06-22T10:00:26;5.88;;;4.40;;
24897;SDS011;12957;49.434;8.684;2023-06-22T10:02:52;7.65;;;4.65;;
24897;SDS011;12957;49.434;8.684;2023-06-22T10:05:18;6.57;;;4.72;;
24897;SDS011;12957;49.434;8.684;2023-06-22T10:07:43;7.03;;;4.95;;
24897;SDS011;12957;49.434;8.684;2023-06-22T10:10:12;10.98;;;5.13;;
24897;SDS011;12957;49.434;8.684;2023-06-22T10:12:57;8.52;;;4.90;;
24897;SDS011;12957;49.434;8.684;2023-06-22T10:15:23;10.82;;;5.18;;
24897;SDS011;12957;49.434;8.684;2023-06-22T10:17:48;10.00;;;4.70;;
24897;SDS011;12957;49.434;8.684;2023-06-22T10:20:14;11.45;;;5.15;;
24897;SDS011;12957;49.434;8.684;2023-06-22T10:22:40;9.75;;;5.10;;
24897;SDS011;12957;49.434;8.684;2023-06-22T10:25:06;8.02;;;4.72;;
24897;SDS011;12957;49.434;8.684;2023-06-22T10:27:32;7.50;;;5.20;;
24897;SDS011;12957;49.434;8.684;2023-06-22T10:29:58;11.23;;;5.30;;
24897;SDS011;12957;49.434;8.684;2023-06-22T10:32:24;6.47;;;4.80;;
24897;SDS011;12957;49.434;8.684;2023-06-22T10:34:49;10.15;;;4.93;;
24897;SDS011;12957;49.434;8.684;2023-06-22T10:37:15;11.75;;;5.00;;
24897;SDS011;12957;49.434;8.684;2023-06-22T10:39:40;10.30;;;4.97;;
24897;SDS011;12957;49.434;8.684;2023-06-22T10:42:05;8.85;;;5.38;;
24897;SDS011;12957;49.434;8.684;2023-06-22T10:44:31;5.90;;;4.75;;
24897;SDS011;12957;49.434;8.684;2023-06-22T10:46:56;8.43;;;5.03;;
24897;SDS011;12957;49.434;8.684;2023-06-22T10:49:22;15.02;;;4.80;;
24897;SDS011;12957;49.434;8.684;2023-06-22T10:51:47;7.93;;;5.20;;
24897;SDS011;12957;49.434;8.684;2023-06-22T10:54:13;10.27;;;4.90;;
24897;SDS011;12957;49.434;8.684;2023-06-22T10:56:39;8.18;;;5.20;;
24897;SDS011;12957;49.434;8.684;2023-06-22T10:59:05;11.35;;;4.90;;
24897;SDS011;12957;49.434;8.684;2023-06-22T11:01:30;7.45;;;4.43;;
24897;SDS011;12957;49.434;8.684;2023-06-22T11:03:56;9.57;;;4.68;;
24897;SDS011;12957;49.434;8.684;2023-06-22T11:06:22;11.32;;;4.85;;
24897;SDS011;12957;49.434;8.684;2023-06-22T11:08:47;10.10;;;4.88;;
24897;SDS011;12957;49.434;8.684;2023-06-22T11:11:13;12.13;;;5.07;;
24897;SDS011;12957;49.434;8.684;2023-06-22T11:13:38;9.18;;;4.85;;
24897;SDS011;12957;49.434;8.684;2023-06-22T11:16:04;10.30;;;4.85;;
24897;SDS011;12957;49.434;8.684;2023-06-22T11:18:30;8.63;;;4.95;;
24897;SDS011;12957;49.434;8.684;2023-06-22T11:20:58;11.88;;;4.45;;
24897;SDS011;12957;49.434;8.684;2023-06-22T11:23:23;10.88;;;5.35;;
24897;SDS011;12957;49.434;8.684;2023-06-22T11:25:51;8.52;;;4.53;;
24897;SDS011;12957;49.434;8.684;2023-06-22T11:28:16;15.73;;;5.15;;
24897;SDS011;12957;49.434;8.684;2023-06-22T11:30:42;9.48;;;4.40;;
24897;SDS011;12957;49.434;8.684;2023-06-22T11:33:07;14.73;;;4.80;;
24897;SDS011;12957;49.434;8.684;2023-06-22T11:35:33;8.82;;;4.53;;
24897;SDS011;12957;49.434;8.684;2023-06-22T11:37:58;7.68;;;4.93;;
24897;SDS011;12957;49.434;8.684;2023-06-22T11:40:24;8.77;;;5.03;;
24897;SDS011;12957;49.434;8.684;2023-06-22T11:42:49;10.50;;;5.20;;
24897;SDS011;12957;49.434;8.684;2023-06-22T11:45:15;7.63;;;4.50;;
24897;SDS011;12957;49.434;8.684;2023-06-22T11:47:42;11.68;;;5.15;;
24897;SDS011;12957;49.434;8.684;2023-06-22T11:50:08;9.20;;;4.63;;
24897;SDS011;12957;49.434;8.684;2023-06-22T11:52:33;8.65;;;4.40;;
24897;SDS011;12957;49.434;8.684;2023-06-22T11:55:00;13.07;;;4.95;;
24897;SDS011;12957;49.434;8.684;2023-06-22T11:57:28;10.63;;;4.70;;
24897;SDS011;12957;49.434;8.684;2023-06-22T11:59:54;11.82;;;4.72;;
24897;SDS011;12957;49.434;8.684;2023-06-22T12:02:19;14.95;;;4.90;;
24897;SDS011;12957;49.434;8.684;2023-06-22T12:04:45;9.57;;;4.43;;
24897;SDS011;12957;49.434;8.684;2023-06-22T12:07:11;8.55;;;4.60;;
24897;SDS011;12957;49.434;8.684;2023-06-22T12:09:36;8.07;;;4.28;;
24897;SDS011;12957;49.434;8.684;2023-06-22T12:12:02;10.10;;;4.80;;
24897;SDS011;12957;49.434;8.684;2023-06-22T12:14:28;9.48;;;4.55;;
24897;SDS011;12957;49.434;8.684;2023-06-22T12:16:54;10.23;;;4.90;;
24897;SDS011;12957;49.434;8.684;2023-06-22T12:19:19;9.60;;;4.60;;
24897;SDS011;12957;49.434;8.684;2023-06-22T12:21:45;8.70;;;4.40;;
24897;SDS011;12957;49.434;8.684;2023-06-22T12:24:11;8.30;;;4.85;;
24897;SDS011;12957;49.434;8.684;2023-06-22T12:26:36;14.77;;;4.72;;
24897;SDS011;12957;49.434;8.684;2023-06-22T12:29:02;12.18;;;4.47;;
24897;SDS011;12957;49.434;8.684;2023-06-22T12:31:27;12.35;;;5.05;;
24897;SDS011;12957;49.434;8.684;2023-06-22T12:33:53;11.57;;;5.00;;
24897;SDS011;12957;49.434;8.684;2023-06-22T12:36:18;14.98;;;4.78;;
24897;SDS011;12957;49.434;8.684;2023-06-22T12:38:44;10.55;;;4.57;;
24897;SDS011;12957;49.434;8.684;2023-06-22T12:41:09;10.20;;;4.75;;
24897;SDS011;12957;49.434;8.684;2023-06-22T12:43:35;14.45;;;4.90;;
24897;SDS011;12957;49.434;8.684;2023-06-22T12:46:00;14.73;;;4.80;;
24897;SDS011;12957;49.434;8.684;2023-06-22T12:48:26;9.73;;;4.78;;
24897;SDS011;12957;49.434;8.684;2023-06-22T12:50:52;12.35;;;4.60;;
24897;SDS011;12957;49.434;8.684;2023-06-22T12:53:18;8.65;;;4.70;;
24897;SDS011;12957;49.434;8.684;2023-06-22T12:55:43;10.25;;;4.95;;
24897;SDS011;12957;49.434;8.684;2023-06-22T12:58:09;11.75;;;4.85;;
24897;SDS011;12957;49.434;8.684;2023-06-22T13:00:34;13.02;;;4.78;;
24897;SDS011;12957;49.434;8.684;2023-06-22T13:03:00;10.48;;;4.60;;
24897;SDS011;12957;49.434;8.684;2023-06-22T13:05:25;6.78;;;4.40;;
24897;SDS011;12957;49.434;8.684;2023-06-22T13:07:51;8.38;;;4.75;;
24897;SDS011;12957;49.434;8.684;2023-06-22T13:10:17;12.65;;;4.88;;
24897;SDS011;12957;49.434;8.684;2023-06-22T13:12:42;10.55;;;4.43;;
24897;SDS011;12957;49.434;8.684;2023-06-22T13:15:08;12.93;;;5.05;;
24897;SDS011;12957;49.434;8.684;2023-06-22T13:17:33;10.85;;;4.97;;
24897;SDS011;12957;49.434;8.684;2023-06-22T13:19:59;7.78;;;4.43;;
24897;SDS011;12957;49.434;8.684;2023-06-22T13:22:31;10.13;;;4.70;;
24897;SDS011;12957;49.434;8.684;2023-06-22T13:24:58;19.77;;;5.10;;
24897;SDS011;12957;49.434;8.684;2023-06-22T13:27:23;11.45;;;4.90;;
24897;SDS011;12957;49.434;8.684;2023-06-22T13:29:49;13.35;;;4.68;;
24897;SDS011;12957;49.434;8.684;2023-06-22T13:32:14;10.50;;;4.82;;
24897;SDS011;12957;49.434;8.684;2023-06-22T13:34:40;8.65;;;4.63;;
24897;SDS011;12957;49.434;8.684;2023-06-22T13:37:05;13.85;;;4.55;;
24897;SDS011;12957;49.434;8.684;2023-06-22T13:39:31;11.77;;;4.50;;
24897;SDS011;12957;49.434;8.684;2023-06-22T13:41:57;12.93;;;4.60;;
24897;SDS011;12957;49.434;8.684;2023-06-22T13:44:23;10.73;;;4.55;;
24897;SDS011;12957;49.434;8.684;2023-06-22T13:46:52;13.45;;;4.63;;
24897;SDS011;12957;49.434;8.684;2023-06-22T13:49:18;8.75;;;4.50;;
24897;SDS011;12957;49.434;8.684;2023-06-22T13:51:43;14.93;;;4.75;;
24897;SDS011;12957;49.434;8.684;2023-06-22T13:54:09;13.85;;;5.50;;
24897;SDS011;12957;49.434;8.684;2023-06-22T13:56:34;16.35;;;5.10;;
24897;SDS011;12957;49.434;8.684;2023-06-22T13:59:00;14.32;;;5.28;;
24897;SDS011;12957;49.434;8.684;2023-06-22T14:01:25;18.45;;;4.78;;
24897;SDS011;12957;49.434;8.684;2023-06-22T14:03:51;12.15;;;5.00;;
24897;SDS011;12957;49.434;8.684;2023-06-22T14:06:16;13.07;;;4.93;;
24897;SDS011;12957;49.434;8.684;2023-06-22T14:08:42;10.15;;;4.95;;
24897;SDS011;12957;49.434;8.684;2023-06-22T14:11:08;15.15;;;5.03;;
24897;SDS011;12957;49.434;8.684;2023-06-22T14:13:34;13.05;;;5.40;;
24897;SDS011;12957;49.434;8.684;2023-06-22T14:16:00;8.60;;;5.00;;
24897;SDS011;12957;49.434;8.684;2023-06-22T14:18:26;13.15;;;5.47;;
24897;SDS011;12957;49.434;8.684;2023-06-22T14:20:52;10.52;;;4.80;;
24897;SDS011;12957;49.434;8.684;2023-06-22T14:23:17;11.63;;;5.35;;
24897;SDS011;12957;49.434;8.684;2023-06-22T14:25:43;8.38;;;5.22;;
24897;SDS011;12957;49.434;8.684;2023-06-22T14:28:08;8.30;;;4.88;;
24897;SDS011;12957;49.434;8.684;2023-06-22T14:30:34;14.05;;;5.30;;
24897;SDS011;12957;49.434;8.684;2023-06-22T14:32:59;11.48;;;4.90;;
24897;SDS011;12957;49.434;8.684;2023-06-22T14:35:24;12.43;;;4.93;;
24897;SDS011;12957;49.434;8.684;2023-06-22T14:37:50;16.80;;;5.78;;
24897;SDS011;12957;49.434;8.684;2023-06-22T14:40:16;12.20;;;5.60;;
24897;SDS011;12957;49.434;8.684;2023-06-22T14:42:41;9.88;;;4.85;;
24897;SDS011;12957;49.434;8.684;2023-06-22T14:45:07;12.52;;;5.47;;